Latest Weather Observations for Low Isles

IDQ60801

Issued at 2:32 pm EST Thursday 13 December 2018 (issued every 10 minutes, with the page automatically refreshed every 10 minutes)

About weather observations | Map of weather stations | Latest weather observations for QLD | Other Formats
Station Details ID: 031037 Name: LOW ISLES LIGHTHOUSE Lat: -16.38 Lon: 145.56 Height: 2.9 m
Data from the previous 72 hours. | See also: Recent months at Low Isles
Date/Time
EST
Temp
°C
App
Temp
°C
Dew
Point
°C
Rel
Hum
%
Delta-T
°C
Wind Press
QNH
hPa
Press
MSL
hPa
Rain since
9am
mm
Dir  Spd
km/h
Gust
km/h
Spd
kts
Gust
kts
13/02:30pm 33.0 35.7 24.7 61 5.9 NNE 19 22 10 12 1005.3 1005.2 0.0
13/02:00pm 33.9 37.5 25.6 62 5.9 NNE 17 20 9 11 1006.0 1005.9 0.0
13/01:30pm 33.4 35.9 24.8 60 6.1 NNE 20 24 11 13 1006.6 1006.5 0.0
13/01:00pm 33.6 36.3 25.6 63 5.7 NNE 22 26 12 14 1007.1 1007.0 0.0
13/12:30pm 33.4 35.6 24.8 60 6.1 NNE 22 24 12 13 1007.5 1007.4 0.0
13/12:00pm 34.1 37.1 25.2 59 6.3 NE 19 22 10 12 1007.9 1007.8 0.0
13/11:30am 33.9 37.3 25.3 60 6.1 NE 17 20 9 11 1008.2 1008.1 0.0
13/11:00am 33.2 36.1 24.4 60 6.2 NNE 17 20 9 11 1008.4 1008.3 0.0
13/10:30am 32.6 35.8 24.9 64 5.4 NNE 17 20 9 11 1008.6 1008.5 0.0
13/10:00am 32.0 35.6 24.3 63 5.4 NNE 13 17 7 9 1008.7 1008.6 0.0
13/09:30am 30.6 35.8 23.5 66 4.9 NNE 2 7 1 4 1008.8 1008.7 0.0
13/09:00am 29.9 34.3 23.8 70 4.2 W 7 9 4 5 1008.8 1008.7 0.0
13/08:30am 28.3 33.2 24.3 79 2.8 WNW 6 7 3 4 1008.6 1008.5 0.0
13/08:00am 27.4 32.3 24.7 85 1.9 WNW 7 9 4 5 1008.6 1008.5 0.0
13/07:30am 26.8 31.8 24.8 89 1.4 W 7 9 4 5 1008.6 1008.5 0.0
13/07:00am 26.5 30.6 24.5 89 1.4 WSW 11 13 6 7 1008.4 1008.3 0.0
13/06:30am 26.6 30.3 25.2 92 1.0 W 15 17 8 9 1008.2 1008.1 0.0
13/06:00am 26.5 29.5 25.3 93 0.8 W 19 20 10 11 1008.0 1007.9 0.0
13/05:30am 26.5 29.8 25.1 92 1.0 W 17 20 9 11 1007.6 1007.5 0.0
13/05:00am 26.8 30.2 25.2 91 1.1 W 17 20 9 11 1007.3 1007.2 0.0
13/04:30am 27.0 30.2 25.6 92 1.0 WNW 19 20 10 11 1007.1 1007.0 0.0
13/04:00am 26.9 29.9 25.3 91 1.1 WNW 19 20 10 11 1006.8 1006.7 0.0
13/03:30am 27.0 29.9 25.4 91 1.1 WNW 20 22 11 12 1006.6 1006.5 0.0
13/03:00am 26.9 29.9 25.5 92 1.0 WNW 20 24 11 13 1006.5 1006.4 0.0
13/02:30am 27.1 30.7 26.2 95 0.6 WNW 19 22 10 12 1006.6 1006.5 0.0
13/02:00am 27.1 31.0 26.0 94 0.8 WNW 17 20 9 11 1006.6 1006.5 0.0
13/01:30am 27.3 31.5 25.9 92 1.0 WNW 15 17 8 9 1006.7 1006.6 0.0
13/01:00am 27.5 32.1 25.3 88 1.5 W 11 13 6 7 1006.9 1006.8 0.0
13/12:30am 27.6 32.6 26.0 91 1.1 WSW 11 13 6 7 1007.2 1007.1 0.0
13/12:00am 27.2 33.7 25.0 88 1.5 CALM 0 0 0 0 1007.8 1007.7 0.0
 
Date/Time
EST
Temp
°C
App
Temp
°C
Dew
Point
°C
Rel
Hum
%
Delta-T
°C
Wind Press
QNH
hPa
Press
MSL
hPa
Rain since
9am
mm
Dir  Spd
km/h
Gust
km/h
Spd
kts
Gust
kts
12/11:30pm 27.2 33.8 25.2 89 1.4 CALM 0 0 0 0 1008.2 1008.1 0.0
12/11:00pm 27.1 33.4 25.3 90 1.3 ESE 2 6 1 3 1008.3 1008.2 0.0
12/10:30pm 27.0 32.1 25.0 89 1.4 ESE 7 9 4 5 1008.5 1008.4 0.0
12/10:00pm 27.1 32.3 25.1 89 1.4 ESE 7 9 4 5 1008.5 1008.4 0.0
12/09:30pm 27.3 32.5 25.1 88 1.5 ESE 7 9 4 5 1008.8 1008.7 0.0
12/09:00pm 27.6 32.3 25.0 86 1.8 ESE 9 11 5 6 1008.7 1008.6 0.0
12/08:30pm 27.6 32.6 24.8 85 2.0 NE 7 9 4 5 1008.6 1008.5 0.0
12/08:00pm 27.6 32.4 24.4 83 2.2 N 7 7 4 4 1008.5 1008.4 0.0
12/07:30pm 27.9 33.8 24.7 83 2.2 N 2 7 1 4 1008.4 1008.3 0.0
12/07:00pm 28.0 32.9 24.4 81 2.5 NNE 6 7 3 4 1008.2 1008.1 0.0
12/06:30pm 28.6 33.1 24.6 79 2.8 NNE 9 13 5 7 1007.8 1007.7 0.0
12/06:00pm 29.1 33.5 24.4 76 3.3 NNE 9 11 5 6 1007.5 1007.4 0.0
12/05:30pm 29.9 33.8 24.8 74 3.6 NNE 13 15 7 8 1007.2 1007.1 0.0
12/05:00pm 30.4 34.4 25.0 73 3.8 NNE 13 15 7 8 1007.0 1006.9 0.0
12/04:30pm 31.0 34.4 24.6 68 4.5 NE 15 19 8 10 1006.7 1006.6 0.0
12/04:00pm 31.3 34.6 23.9 64 5.2 NE 13 15 7 8 1006.9 1006.8 0.0
12/03:30pm 32.3 36.6 24.9 65 5.2 NE 11 15 6 8 1007.1 1007.0 0.0
12/03:00pm 32.7 36.5 24.7 62 5.6 ENE 13 17 7 9 1007.1 1007.0 0.0
12/02:30pm 32.7 37.4 25.0 64 5.4 NE 9 13 5 7 1007.5 1007.4 0.0
12/02:00pm 32.0 36.9 25.3 67 4.8 NE 9 13 5 7 1007.6 1007.5 0.0
12/01:30pm 31.1 37.0 25.4 71 4.0 NE 4 9 2 5 1008.1 1008.0 0.0
12/01:00pm 30.5 34.9 25.1 73 3.8 SE 11 13 6 7 1008.3 1008.2 0.0
12/12:30pm 29.3 33.5 24.8 77 3.1 SE 11 13 6 7 1008.5 1008.4 0.0
12/12:00pm 29.7 33.3 24.3 73 3.8 SE 13 15 7 8 1009.0 1008.9 0.0
12/11:30am 29.3 33.8 24.6 76 3.3 SSE 9 11 5 6 1009.6 1009.5 0.0
12/11:00am 29.1 33.7 24.7 77 3.1 SSE 9 11 5 6 1010.0 1009.9 0.0
12/10:30am 29.4 33.6 24.7 76 3.3 SSE 11 13 6 7 1010.3 1010.2 0.0
12/10:00am 28.6 32.8 24.8 80 2.7 SE 11 13 6 7 1010.4 1010.3 0.0
12/09:30am 28.1 32.0 24.9 83 2.2 SE 13 15 7 8 1010.4 1010.3 0.0
12/09:00am 27.8 31.3 24.8 84 2.1 SE 15 17 8 9 1010.4 1010.3 5.8
12/08:30am 27.5 30.3 24.9 86 1.8 SE 19 20 10 11 1010.1 1010.0 5.8
12/08:00am 27.1 30.5 25.9 93 0.8 SE 19 20 10 11 1009.6 1009.5 5.8
12/07:30am 26.9 30.5 26.4 97 0.4 SE 20 22 11 12 1009.3 1009.2 5.8
12/07:00am 26.5 30.1 26.5 100 0.0 SE 20 26 11 14 1009.2 1009.1 5.8
12/06:30am 25.9 29.6 25.7 99 0.1 S 17 22 9 12 1008.8 1008.7 5.8
12/06:00am 26.2 29.0 25.3 95 0.6 SE 20 24 11 13 1008.5 1008.4 2.0
12/05:30am 26.4 31.7 25.9 97 0.4 E 9 15 5 8 1007.9 1007.8 1.8
12/05:00am 26.6 29.6 25.6 94 0.7 SE 20 22 11 12 1007.7 1007.6 1.8
12/04:30am 26.7 29.9 25.8 95 0.6 SE 20 24 11 13 1007.4 1007.3 1.8
12/04:00am 26.8 30.0 25.9 95 0.6 SE 20 24 11 13 1007.4 1007.3 1.8
12/03:30am 26.9 30.4 26.0 95 0.6 SE 19 20 10 11 1007.4 1007.3 1.8
12/03:00am 26.5 30.7 26.5 100 0.0 SE 17 19 9 10 1007.6 1007.5 1.8
12/02:30am 26.2 30.5 25.5 96 0.5 SSE 13 15 7 8 1007.8 1007.7 1.8
12/02:00am 26.7 28.2 24.9 90 1.3 SE 26 30 14 16 1008.0 1007.9 0.2
12/01:30am 27.2 30.4 25.6 91 1.1 SSE 19 20 10 11 1008.1 1008.0 0.0
12/01:00am 27.4 31.0 25.6 90 1.3 SE 17 20 9 11 1008.5 1008.4 0.0
12/12:30am 27.4 31.5 25.8 91 1.1 ESE 15 17 8 9 1008.9 1008.8 0.0
12/12:00am 27.3 31.5 25.9 92 1.0 ESE 15 19 8 10 1009.2 1009.1 0.0
 
Date/Time
EST
Temp
°C
App
Temp
°C
Dew
Point
°C
Rel
Hum
%
Delta-T
°C
Wind Press
QNH
hPa
Press
MSL
hPa
Rain since
9am
mm
Dir  Spd
km/h
Gust
km/h
Spd
kts
Gust
kts
11/11:30pm 27.2 30.0 25.0 88 1.5 ESE 19 22 10 12 1009.5 1009.4 0.0
11/11:00pm 27.5 30.7 25.9 91 1.1 ESE 20 24 11 13 1009.7 1009.6 0.0
11/10:30pm 27.5 30.9 25.9 91 1.1 SE 19 20 10 11 1010.0 1009.9 0.0
11/10:00pm 27.6 31.6 26.2 92 1.0 SE 17 20 9 11 1010.0 1009.9 0.0
11/09:30pm 27.5 31.9 25.7 90 1.3 ESE 13 17 7 9 1009.7 1009.6 0.0
11/09:00pm 27.5 32.2 25.5 89 1.4 E 11 13 6 7 1009.7 1009.6 0.0
11/08:30pm 27.6 32.6 24.8 85 2.0 ESE 7 9 4 5 1009.4 1009.3 0.0
11/08:00pm 27.3 32.1 24.4 84 2.0 ESE 7 7 4 4 1009.2 1009.1 0.0
11/07:30pm 27.8 32.8 24.8 84 2.1 ESE 7 9 4 5 1009.0 1008.9 0.0
11/07:00pm 27.8 32.2 24.4 82 2.4 ESE 9 13 5 7 1008.8 1008.7 0.0
11/06:30pm 28.2 32.5 24.2 79 2.8 ESE 9 11 5 6 1008.6 1008.5 0.0
11/06:00pm 28.8 34.0 24.8 79 2.8 NNE 6 7 3 4 1008.4 1008.3 0.0
11/05:30pm 28.9 33.7 25.1 80 2.7 ENE 9 15 5 8 1008.0 1007.9 0.0
11/05:00pm 29.0 32.7 24.6 77 3.1 E 13 17 7 9 1007.6 1007.5 0.0
11/04:30pm 28.7 33.6 25.3 82 2.4 E 9 13 5 7 1007.4 1007.3 0.0
11/04:00pm 28.2 31.4 24.4 80 2.6 SE 15 19 8 10 1007.4 1007.3 0.0
11/03:30pm 29.4 33.1 25.2 78 3.0 SE 15 17 8 9 1007.6 1007.5 0.0
11/03:00pm 30.0 33.9 25.5 77 3.2 SE 15 17 8 9 1007.9 1007.8 0.0
11/02:30pm 29.8 33.2 24.7 74 3.6 ESE 15 19 8 10 1008.1 1008.0 0.0
11/02:00pm 30.3 33.9 25.6 76 3.3 ESE 17 20 9 11 1008.2 1008.1 0.0
11/01:30pm 29.4 32.4 24.7 76 3.3 ESE 17 20 9 11 1008.6 1008.5 0.0
11/01:00pm 29.8 32.3 24.4 73 3.8 ESE 19 26 10 14 1008.8 1008.7 0.0
11/12:30pm 31.9 34.9 25.2 67 4.7 ESE 19 24 10 13 1009.2 1009.1 0.0
11/12:00pm 31.5 33.4 24.4 66 5.0 E 22 28 12 15 1009.3 1009.2 0.0
11/11:30am 31.8 35.0 24.9 67 4.9 E 17 22 9 12 1009.7 1009.6 0.0
11/11:00am 31.0 33.0 23.9 66 4.9 E 20 26 11 14 1009.8 1009.7 0.0
11/10:30am 31.1 33.8 25.0 70 4.3 E 20 26 11 14 1010.0 1009.9 0.0
11/10:00am 29.8 32.3 24.7 74 3.6 E 20 26 11 14 1010.0 1009.9 0.0
11/09:30am 30.4 32.3 25.0 73 3.8 E 24 28 13 15 1010.1 1010.0 0.0
11/09:00am 29.9 32.8 25.4 77 3.2 E 20 30 11 16 1010.1 1010.0 0.4
11/08:30am 29.2 32.5 26.0 83 2.3 E 20 28 11 15 1010.1 1010.0 0.4
11/08:00am 28.0 31.6 25.6 87 1.7 E 17 24 9 13 1010.0 1009.9 0.4
11/07:30am 27.2 30.2 25.6 91 1.1 ENE 20 26 11 14 1009.6 1009.5 0.4
11/07:00am 26.9 29.7 25.3 91 1.1 ENE 20 26 11 14 1009.3 1009.2 0.4
11/06:30am 27.1 28.7 25.1 89 1.4 ENE 26 33 14 18 1008.8 1008.7 0.4
11/06:00am 26.8 28.1 25.2 91 1.1 ENE 28 32 15 17 1008.3 1008.2 0.4
11/05:30am 26.7 27.6 25.3 92 1.0 E 30 37 16 20 1007.6 1007.5 0.4
11/05:00am 26.7 29.0 25.7 94 0.7 E 24 30 13 16 1007.2 1007.1 0.4
11/04:30am 26.6 27.4 25.6 94 0.7 ESE 32 43 17 23 1007.0 1006.9 0.4
11/04:00am 26.8 27.7 25.2 91 1.1 ESE 30 37 16 20 1006.9 1006.8 0.2
11/03:30am 26.8 27.7 25.2 91 1.1 ESE 30 37 16 20 1006.6 1006.5 0.2
11/03:00am 26.9 27.8 25.3 91 1.1 E 30 35 16 19 1006.9 1006.8 0.2
11/02:30am 26.9 28.1 25.1 90 1.3 E 28 37 15 20 1006.9 1006.8 0.2
11/02:00am 26.9 27.8 25.3 91 1.1 E 30 37 16 20 1006.7 1006.6 0.2
11/01:30am 26.9 28.6 25.3 91 1.1 E 26 32 14 17 1007.0 1006.9 0.2
11/01:00am 26.9 29.2 25.1 90 1.3 E 22 28 12 15 1007.4 1007.3 0.2
11/12:30am 26.8 29.2 25.2 91 1.1 E 22 28 12 15 1007.7 1007.6 0.2
11/12:00am 26.7 29.4 25.1 91 1.1 E 20 24 11 13 1008.0 1007.9 0.2
 
Date/Time
EST
Temp
°C
App
Temp
°C
Dew
Point
°C
Rel
Hum
%
Delta-T
°C
Wind Press
QNH
hPa
Press
MSL
hPa
Rain since
9am
mm
Dir  Spd
km/h
Gust
km/h
Spd
kts
Gust
kts
10/11:30pm 26.7 29.3 24.9 90 1.3 E 20 24 11 13 1008.4 1008.3 0.2
10/11:00pm 26.7 29.6 25.1 91 1.1 E 19 24 10 13 1008.4 1008.3 0.2
10/10:30pm 26.6 29.4 25.0 91 1.1 E 19 22 10 12 1008.7 1008.6 0.2
10/10:00pm 26.6 29.3 24.8 90 1.3 E 19 24 10 13 1008.5 1008.4 0.2
10/09:30pm 26.7 29.6 25.1 91 1.1 ENE 19 26 10 14 1008.5 1008.4 0.2
10/09:00pm 26.7 28.9 24.9 90 1.3 E 22 30 12 16 1008.0 1007.9 0.2
10/08:30pm 26.9 28.6 25.3 91 1.1 ENE 26 30 14 16 1007.6 1007.5 0.2
10/08:00pm 26.9 29.2 25.1 90 1.3 NE 22 30 12 16 1007.3 1007.2 0.2
10/07:30pm 26.9 28.9 25.1 90 1.3 NE 24 30 13 16 1006.8 1006.7 0.2
10/07:00pm 27.0 28.0 24.8 88 1.5 NE 28 32 15 17 1006.3 1006.2 0.2
10/06:30pm 26.9 28.0 24.4 86 1.7 NE 26 32 14 17 1006.2 1006.1 0.2
10/06:00pm 27.1 27.9 24.4 85 1.9 NE 28 35 15 19 1005.8 1005.7 0.2
10/05:30pm 27.5 27.6 24.6 84 2.0 ENE 32 37 17 20 1005.2 1005.1 0.2
10/05:00pm 27.7 28.3 24.1 81 2.5 ENE 28 33 15 18 1004.9 1004.8 0.2
10/04:30pm 28.6 28.6 24.4 78 2.9 NE 32 41 17 22 1004.4 1004.3 0.2
10/04:00pm 28.1 27.9 24.1 79 2.8 ENE 32 37 17 20 1004.5 1004.4 0.2
10/03:30pm 27.9 28.5 24.7 83 2.2 ENE 30 35 16 19 1004.6 1004.5 0.2
10/03:00pm 26.7 26.2 23.6 83 2.1 ENE 32 41 17 22 1004.7 1004.6 0.2

Other Formats:

Comma delimited format used in spreadsheet applications
http://www.bom.gov.au/fwo/IDQ60801/IDQ60801.94285.axf

JavaScript Object Notation format (JSON) in row-major order
http://www.bom.gov.au/fwo/IDQ60801/IDQ60801.94285.json